Terminal Aerodrome Forecast
Issued by NWS Grand Junction, CO

Home | Current Version | Previous Version | Text Only | Print | Product List | Glossary On
Versions: 1 2 3 4 5 6 7 8 9 10 11 12 13 14 15 16 17
000
FTUS45 KGJT 271729
TAFGJT
TAF
KGJT 271729Z 2718/2818 29006KT P6SM SKC
     FM271930 29012G24KT P6SM SKC
     FM280100 27011G20KT P6SM FEW250
     FM280300 30006KT P6SM FEW250
     FM280500 04004KT P6SM SKC
     FM281000 11004KT P6SM SKC
     FM281400 16004KT P6SM FEW200
     FM281600 28008KT P6SM FEW200=

USA.gov is the U.S. government's official web portal to all federal, state and local government web resources and services.